Mayodan, North Carolina
Current Conditions -  °F | °C
As of 11:55 AM on Thursday 30 Oct 2014 (Local Time) from KSIF Reporting Station
Clear Clear  
Wind Chill: 60°   Ceiling: Unl
Heat Index: 60°   Visibility: 10mi
Dew Point: 36°   Wind: 3mph
Humidity: 41%   Direction: 20°NNE
Pressure: 30.08"   Gusts: NA
Location:  36.41°N, 79.97°W
Report Text: KSIF 301555Z AUTO 02003KT 10SM CLR 16/02 A3008 RMK AO2 T01560024
Loading
Personal Weather Stations






























Interactive Weather Map
Tropical Storm Tracking
New forecast layout! Learn more

10-Day Weather Forecast

Advertisements
Track Severe Weather on mobile